sensor_id;sensor_type;location;lat;lon;timestamp;P1;durP1;ratioP1;P2;durP2;ratioP2
25667;SDS011;18003;-33.830;151.202;2023-05-10T00:02:11;4.58;;;2.95;;
25667;SDS011;18003;-33.830;151.202;2023-05-10T00:04:41;3.22;;;2.85;;
25667;SDS011;18003;-33.830;151.202;2023-05-10T00:07:11;3.30;;;2.98;;
25667;SDS011;18003;-33.830;151.202;2023-05-10T00:09:42;3.05;;;2.75;;
25667;SDS011;18003;-33.830;151.202;2023-05-10T00:12:12;3.42;;;2.62;;
25667;SDS011;18003;-33.830;151.202;2023-05-10T00:14:42;3.62;;;2.83;;
25667;SDS011;18003;-33.830;151.202;2023-05-10T00:17:12;3.00;;;2.70;;
25667;SDS011;18003;-33.830;151.202;2023-05-10T00:19:42;7.08;;;2.70;;
25667;SDS011;18003;-33.830;151.202;2023-05-10T00:22:12;2.95;;;2.67;;
25667;SDS011;18003;-33.830;151.202;2023-05-10T00:24:42;3.50;;;3.10;;
25667;SDS011;18003;-33.830;151.202;2023-05-10T00:27:12;5.35;;;2.95;;
25667;SDS011;18003;-33.830;151.202;2023-05-10T00:29:42;3.05;;;2.37;;
25667;SDS011;18003;-33.830;151.202;2023-05-10T00:32:12;3.05;;;2.85;;
25667;SDS011;18003;-33.830;151.202;2023-05-10T00:34:42;6.62;;;2.75;;
25667;SDS011;18003;-33.830;151.202;2023-05-10T00:37:12;2.77;;;2.58;;
25667;SDS011;18003;-33.830;151.202;2023-05-10T00:39:42;2.90;;;2.70;;
25667;SDS011;18003;-33.830;151.202;2023-05-10T00:42:12;3.67;;;2.85;;
25667;SDS011;18003;-33.830;151.202;2023-05-10T00:44:43;2.90;;;2.67;;
25667;SDS011;18003;-33.830;151.202;2023-05-10T00:47:13;3.33;;;2.60;;
25667;SDS011;18003;-33.830;151.202;2023-05-10T00:49:43;3.35;;;2.35;;
25667;SDS011;18003;-33.830;151.202;2023-05-10T00:52:13;2.85;;;2.60;;
25667;SDS011;18003;-33.830;151.202;2023-05-10T00:54:43;3.08;;;2.70;;
25667;SDS011;18003;-33.830;151.202;2023-05-10T00:57:14;2.92;;;2.72;;
25667;SDS011;18003;-33.830;151.202;2023-05-10T00:59:44;2.70;;;2.50;;
25667;SDS011;18003;-33.830;151.202;2023-05-10T01:02:14;2.70;;;2.47;;
25667;SDS011;18003;-33.830;151.202;2023-05-10T01:04:44;2.60;;;2.40;;
25667;SDS011;18003;-33.830;151.202;2023-05-10T01:07:14;3.62;;;2.42;;
25667;SDS011;18003;-33.830;151.202;2023-05-10T01:09:44;4.17;;;2.60;;
25667;SDS011;18003;-33.830;151.202;2023-05-10T01:12:15;4.22;;;2.30;;
25667;SDS011;18003;-33.830;151.202;2023-05-10T01:14:45;2.83;;;2.30;;
25667;SDS011;18003;-33.830;151.202;2023-05-10T01:17:15;3.80;;;2.70;;
25667;SDS011;18003;-33.830;151.202;2023-05-10T01:19:45;2.67;;;2.40;;
25667;SDS011;18003;-33.830;151.202;2023-05-10T01:28:04;4.00;;;2.40;;
25667;SDS011;18003;-33.830;151.202;2023-05-10T01:33:34;4.60;;;2.30;;
25667;SDS011;18003;-33.830;151.202;2023-05-10T01:36:19;2.83;;;2.50;;
25667;SDS011;18003;-33.830;151.202;2023-05-10T01:41:59;2.37;;;2.10;;
25667;SDS011;18003;-33.830;151.202;2023-05-10T01:47:15;2.75;;;2.30;;
25667;SDS011;18003;-33.830;151.202;2023-05-10T01:50:01;2.47;;;2.37;;
25667;SDS011;18003;-33.830;151.202;2023-05-10T01:52:37;2.50;;;2.30;;
25667;SDS011;18003;-33.830;151.202;2023-05-10T01:55:08;2.42;;;2.22;;
25667;SDS011;18003;-33.830;151.202;2023-05-10T01:57:39;2.27;;;2.08;;
25667;SDS011;18003;-33.830;151.202;2023-05-10T02:00:10;2.62;;;2.02;;
25667;SDS011;18003;-33.830;151.202;2023-05-10T02:02:44;2.52;;;2.10;;
25667;SDS011;18003;-33.830;151.202;2023-05-10T02:05:14;2.58;;;2.20;;
25667;SDS011;18003;-33.830;151.202;2023-05-10T02:07:45;3.20;;;2.05;;
25667;SDS011;18003;-33.830;151.202;2023-05-10T02:10:16;4.55;;;2.02;;
25667;SDS011;18003;-33.830;151.202;2023-05-10T02:12:47;4.17;;;2.20;;
25667;SDS011;18003;-33.830;151.202;2023-05-10T02:17:48;2.55;;;1.92;;
25667;SDS011;18003;-33.830;151.202;2023-05-10T02:20:19;3.50;;;2.00;;
25667;SDS011;18003;-33.830;151.202;2023-05-10T02:22:50;2.63;;;1.80;;
25667;SDS011;18003;-33.830;151.202;2023-05-10T02:27:51;2.42;;;2.00;;
25667;SDS011;18003;-33.830;151.202;2023-05-10T02:30:23;4.55;;;2.17;;
25667;SDS011;18003;-33.830;151.202;2023-05-10T02:32:54;2.80;;;1.90;;
25667;SDS011;18003;-33.830;151.202;2023-05-10T02:35:25;2.80;;;2.08;;
25667;SDS011;18003;-33.830;151.202;2023-05-10T02:37:56;2.35;;;1.90;;
25667;SDS011;18003;-33.830;151.202;2023-05-10T02:40:27;2.50;;;2.08;;
25667;SDS011;18003;-33.830;151.202;2023-05-10T02:42:58;3.98;;;1.70;;
25667;SDS011;18003;-33.830;151.202;2023-05-10T02:45:30;2.33;;;1.90;;
25667;SDS011;18003;-33.830;151.202;2023-05-10T02:48:02;3.20;;;1.80;;
25667;SDS011;18003;-33.830;151.202;2023-05-10T02:50:33;3.27;;;2.40;;
25667;SDS011;18003;-33.830;151.202;2023-05-10T02:53:06;2.80;;;2.00;;
25667;SDS011;18003;-33.830;151.202;2023-05-10T02:55:37;3.02;;;2.30;;
25667;SDS011;18003;-33.830;151.202;2023-05-10T02:58:09;2.80;;;2.10;;
25667;SDS011;18003;-33.830;151.202;2023-05-10T03:00:39;3.40;;;2.00;;
25667;SDS011;18003;-33.830;151.202;2023-05-10T03:03:09;2.35;;;1.87;;
25667;SDS011;18003;-33.830;151.202;2023-05-10T03:05:39;2.98;;;2.00;;
25667;SDS011;18003;-33.830;151.202;2023-05-10T03:08:09;4.83;;;2.17;;
25667;SDS011;18003;-33.830;151.202;2023-05-10T03:10:45;4.85;;;2.20;;
25667;SDS011;18003;-33.830;151.202;2023-05-10T03:13:28;3.45;;;2.50;;
25667;SDS011;18003;-33.830;151.202;2023-05-10T03:16:06;3.12;;;2.10;;
25667;SDS011;18003;-33.830;151.202;2023-05-10T03:18:50;2.83;;;2.10;;
25667;SDS011;18003;-33.830;151.202;2023-05-10T03:21:26;3.92;;;2.20;;
25667;SDS011;18003;-33.830;151.202;2023-05-10T03:26:27;3.08;;;1.70;;
25667;SDS011;18003;-33.830;151.202;2023-05-10T03:28:57;4.58;;;2.20;;
25667;SDS011;18003;-33.830;151.202;2023-05-10T03:31:27;3.72;;;2.12;;
25667;SDS011;18003;-33.830;151.202;2023-05-10T03:33:57;4.58;;;2.30;;
25667;SDS011;18003;-33.830;151.202;2023-05-10T03:36:27;4.30;;;2.30;;
25667;SDS011;18003;-33.830;151.202;2023-05-10T03:38:57;4.17;;;2.17;;
25667;SDS011;18003;-33.830;151.202;2023-05-10T03:41:27;2.35;;;2.00;;
25667;SDS011;18003;-33.830;151.202;2023-05-10T03:43:57;6.12;;;2.22;;
25667;SDS011;18003;-33.830;151.202;2023-05-10T03:46:27;3.22;;;2.17;;
25667;SDS011;18003;-33.830;151.202;2023-05-10T03:48:58;3.52;;;1.87;;
25667;SDS011;18003;-33.830;151.202;2023-05-10T03:51:28;4.22;;;2.17;;
25667;SDS011;18003;-33.830;151.202;2023-05-10T03:53:58;4.85;;;2.55;;
25667;SDS011;18003;-33.830;151.202;2023-05-10T03:56:28;3.12;;;2.20;;
25667;SDS011;18003;-33.830;151.202;2023-05-10T03:58:59;2.70;;;2.00;;
25667;SDS011;18003;-33.830;151.202;2023-05-10T04:01:30;5.72;;;2.30;;
25667;SDS011;18003;-33.830;151.202;2023-05-10T04:04:00;4.42;;;2.20;;
25667;SDS011;18003;-33.830;151.202;2023-05-10T04:06:30;5.30;;;2.40;;
25667;SDS011;18003;-33.830;151.202;2023-05-10T04:09:00;3.90;;;1.95;;
25667;SDS011;18003;-33.830;151.202;2023-05-10T04:11:30;3.87;;;2.42;;
25667;SDS011;18003;-33.830;151.202;2023-05-10T04:14:00;5.05;;;2.30;;
25667;SDS011;18003;-33.830;151.202;2023-05-10T04:16:31;2.52;;;2.33;;
25667;SDS011;18003;-33.830;151.202;2023-05-10T04:19:00;4.15;;;2.30;;
25667;SDS011;18003;-33.830;151.202;2023-05-10T04:21:31;3.08;;;2.40;;
25667;SDS011;18003;-33.830;151.202;2023-05-10T04:24:00;3.40;;;2.60;;
25667;SDS011;18003;-33.830;151.202;2023-05-10T04:26:31;2.58;;;2.35;;
25667;SDS011;18003;-33.830;151.202;2023-05-10T04:29:01;4.53;;;2.70;;
25667;SDS011;18003;-33.830;151.202;2023-05-10T04:31:31;3.95;;;2.30;;
25667;SDS011;18003;-33.830;151.202;2023-05-10T04:34:02;4.72;;;2.65;;
25667;SDS011;18003;-33.830;151.202;2023-05-10T04:36:32;3.33;;;2.58;;
25667;SDS011;18003;-33.830;151.202;2023-05-10T04:39:03;4.78;;;2.67;;
25667;SDS011;18003;-33.830;151.202;2023-05-10T04:41:33;3.37;;;2.20;;
25667;SDS011;18003;-33.830;151.202;2023-05-10T04:44:03;6.05;;;2.60;;
25667;SDS011;18003;-33.830;151.202;2023-05-10T04:46:33;3.60;;;2.62;;
25667;SDS011;18003;-33.830;151.202;2023-05-10T04:49:03;4.78;;;3.05;;
25667;SDS011;18003;-33.830;151.202;2023-05-10T04:51:34;3.37;;;2.55;;
25667;SDS011;18003;-33.830;151.202;2023-05-10T04:54:04;2.83;;;2.58;;
25667;SDS011;18003;-33.830;151.202;2023-05-10T04:56:34;3.27;;;2.50;;
25667;SDS011;18003;-33.830;151.202;2023-05-10T04:59:04;4.30;;;2.45;;
25667;SDS011;18003;-33.830;151.202;2023-05-10T05:01:34;5.37;;;2.62;;
25667;SDS011;18003;-33.830;151.202;2023-05-10T05:04:05;4.70;;;2.62;;
25667;SDS011;18003;-33.830;151.202;2023-05-10T05:06:35;3.37;;;2.20;;
25667;SDS011;18003;-33.830;151.202;2023-05-10T05:09:04;4.28;;;2.27;;
25667;SDS011;18003;-33.830;151.202;2023-05-10T05:11:35;3.08;;;2.17;;
25667;SDS011;18003;-33.830;151.202;2023-05-10T05:14:05;4.25;;;2.20;;
25667;SDS011;18003;-33.830;151.202;2023-05-10T05:16:35;5.42;;;2.40;;
25667;SDS011;18003;-33.830;151.202;2023-05-10T05:19:05;4.72;;;2.33;;
25667;SDS011;18003;-33.830;151.202;2023-05-10T05:21:35;4.20;;;2.42;;
25667;SDS011;18003;-33.830;151.202;2023-05-10T05:24:05;3.98;;;2.30;;
25667;SDS011;18003;-33.830;151.202;2023-05-10T05:26:36;4.62;;;2.27;;
25667;SDS011;18003;-33.830;151.202;2023-05-10T05:29:07;2.40;;;2.20;;
25667;SDS011;18003;-33.830;151.202;2023-05-10T05:31:37;3.58;;;2.27;;
25667;SDS011;18003;-33.830;151.202;2023-05-10T05:34:07;4.28;;;2.40;;
25667;SDS011;18003;-33.830;151.202;2023-05-10T05:36:37;4.33;;;2.27;;
25667;SDS011;18003;-33.830;151.202;2023-05-10T05:39:07;5.00;;;2.52;;
25667;SDS011;18003;-33.830;151.202;2023-05-10T05:41:37;2.95;;;2.15;;
25667;SDS011;18003;-33.830;151.202;2023-05-10T05:44:07;6.85;;;2.30;;
25667;SDS011;18003;-33.830;151.202;2023-05-10T05:46:37;4.05;;;2.27;;
25667;SDS011;18003;-33.830;151.202;2023-05-10T05:49:08;4.28;;;2.60;;
25667;SDS011;18003;-33.830;151.202;2023-05-10T05:51:38;7.60;;;2.90;;
25667;SDS011;18003;-33.830;151.202;2023-05-10T05:54:09;4.00;;;2.58;;
25667;SDS011;18003;-33.830;151.202;2023-05-10T05:56:39;4.47;;;2.92;;
25667;SDS011;18003;-33.830;151.202;2023-05-10T05:59:10;4.90;;;2.85;;
25667;SDS011;18003;-33.830;151.202;2023-05-10T06:01:40;4.12;;;2.67;;
25667;SDS011;18003;-33.830;151.202;2023-05-10T06:04:10;4.00;;;2.62;;
25667;SDS011;18003;-33.830;151.202;2023-05-10T06:06:41;3.75;;;2.55;;
25667;SDS011;18003;-33.830;151.202;2023-05-10T06:09:11;5.92;;;2.47;;
25667;SDS011;18003;-33.830;151.202;2023-05-10T06:11:41;3.58;;;2.50;;
25667;SDS011;18003;-33.830;151.202;2023-05-10T06:14:12;4.83;;;2.50;;
25667;SDS011;18003;-33.830;151.202;2023-05-10T06:16:42;4.00;;;2.30;;
25667;SDS011;18003;-33.830;151.202;2023-05-10T06:19:15;4.03;;;2.40;;
25667;SDS011;18003;-33.830;151.202;2023-05-10T06:21:45;3.85;;;2.33;;
25667;SDS011;18003;-33.830;151.202;2023-05-10T06:24:15;23.45;;;3.27;;
25667;SDS011;18003;-33.830;151.202;2023-05-10T06:26:45;12.50;;;2.40;;
25667;SDS011;18003;-33.830;151.202;2023-05-10T06:29:16;10.50;;;2.30;;
25667;SDS011;18003;-33.830;151.202;2023-05-10T06:31:46;10.70;;;2.55;;
25667;SDS011;18003;-33.830;151.202;2023-05-10T06:34:16;5.85;;;2.20;;
25667;SDS011;18003;-33.830;151.202;2023-05-10T06:36:46;3.75;;;2.10;;
25667;SDS011;18003;-33.830;151.202;2023-05-10T06:39:16;5.28;;;2.27;;
25667;SDS011;18003;-33.830;151.202;2023-05-10T06:41:46;4.83;;;2.40;;
25667;SDS011;18003;-33.830;151.202;2023-05-10T06:44:15;5.40;;;2.22;;
25667;SDS011;18003;-33.830;151.202;2023-05-10T06:46:45;5.20;;;2.40;;
25667;SDS011;18003;-33.830;151.202;2023-05-10T06:49:16;8.35;;;2.62;;
25667;SDS011;18003;-33.830;151.202;2023-05-10T06:51:46;3.60;;;2.42;;
25667;SDS011;18003;-33.830;151.202;2023-05-10T06:54:16;8.73;;;2.92;;
25667;SDS011;18003;-33.830;151.202;2023-05-10T06:56:48;6.67;;;2.45;;
25667;SDS011;18003;-33.830;151.202;2023-05-10T06:59:18;3.70;;;2.43;;
25667;SDS011;18003;-33.830;151.202;2023-05-10T07:01:49;2.62;;;2.10;;
25667;SDS011;18003;-33.830;151.202;2023-05-10T07:04:20;4.35;;;2.30;;
25667;SDS011;18003;-33.830;151.202;2023-05-10T07:06:50;3.37;;;2.20;;
25667;SDS011;18003;-33.830;151.202;2023-05-10T07:09:20;4.33;;;2.67;;
25667;SDS011;18003;-33.830;151.202;2023-05-10T07:11:50;3.02;;;2.50;;
25667;SDS011;18003;-33.830;151.202;2023-05-10T07:14:20;3.95;;;2.80;;
25667;SDS011;18003;-33.830;151.202;2023-05-10T07:16:50;4.22;;;2.27;;
25667;SDS011;18003;-33.830;151.202;2023-05-10T07:19:22;3.10;;;2.10;;
25667;SDS011;18003;-33.830;151.202;2023-05-10T07:21:52;3.17;;;2.37;;
25667;SDS011;18003;-33.830;151.202;2023-05-10T07:24:24;5.00;;;2.40;;
25667;SDS011;18003;-33.830;151.202;2023-05-10T07:26:57;4.60;;;2.47;;
25667;SDS011;18003;-33.830;151.202;2023-05-10T07:29:27;3.55;;;2.65;;
25667;SDS011;18003;-33.830;151.202;2023-05-10T07:31:57;3.22;;;2.37;;
25667;SDS011;18003;-33.830;151.202;2023-05-10T07:34:27;4.22;;;3.20;;
25667;SDS011;18003;-33.830;151.202;2023-05-10T07:36:58;4.60;;;2.40;;
25667;SDS011;18003;-33.830;151.202;2023-05-10T07:39:28;3.90;;;3.08;;
25667;SDS011;18003;-33.830;151.202;2023-05-10T07:41:58;4.30;;;2.08;;
25667;SDS011;18003;-33.830;151.202;2023-05-10T07:44:29;4.57;;;2.37;;
25667;SDS011;18003;-33.830;151.202;2023-05-10T07:46:59;5.00;;;2.70;;
25667;SDS011;18003;-33.830;151.202;2023-05-10T07:49:29;5.35;;;2.80;;
25667;SDS011;18003;-33.830;151.202;2023-05-10T07:51:59;4.45;;;2.77;;
25667;SDS011;18003;-33.830;151.202;2023-05-10T07:54:30;5.07;;;3.10;;
25667;SDS011;18003;-33.830;151.202;2023-05-10T07:57:00;5.10;;;3.20;;
25667;SDS011;18003;-33.830;151.202;2023-05-10T07:59:31;4.12;;;2.95;;
25667;SDS011;18003;-33.830;151.202;2023-05-10T08:02:00;3.90;;;2.85;;
25667;SDS011;18003;-33.830;151.202;2023-05-10T08:04:30;5.25;;;3.00;;
25667;SDS011;18003;-33.830;151.202;2023-05-10T08:07:00;4.75;;;2.87;;
25667;SDS011;18003;-33.830;151.202;2023-05-10T08:09:30;4.25;;;2.90;;
25667;SDS011;18003;-33.830;151.202;2023-05-10T08:12:01;5.33;;;2.58;;
25667;SDS011;18003;-33.830;151.202;2023-05-10T08:14:31;4.17;;;2.72;;
25667;SDS011;18003;-33.830;151.202;2023-05-10T08:17:01;4.70;;;2.92;;
25667;SDS011;18003;-33.830;151.202;2023-05-10T08:19:31;5.75;;;3.33;;
25667;SDS011;18003;-33.830;151.202;2023-05-10T08:22:01;5.08;;;2.75;;
25667;SDS011;18003;-33.830;151.202;2023-05-10T08:24:31;5.70;;;2.60;;
25667;SDS011;18003;-33.830;151.202;2023-05-10T08:27:02;4.53;;;2.40;;
25667;SDS011;18003;-33.830;151.202;2023-05-10T08:29:33;7.40;;;2.60;;
25667;SDS011;18003;-33.830;151.202;2023-05-10T08:32:03;3.60;;;2.30;;
25667;SDS011;18003;-33.830;151.202;2023-05-10T08:34:33;4.92;;;2.40;;
25667;SDS011;18003;-33.830;151.202;2023-05-10T08:37:03;5.90;;;2.30;;
25667;SDS011;18003;-33.830;151.202;2023-05-10T08:39:34;5.78;;;2.67;;
25667;SDS011;18003;-33.830;151.202;2023-05-10T08:42:04;5.08;;;3.00;;
25667;SDS011;18003;-33.830;151.202;2023-05-10T08:44:35;5.30;;;3.50;;
25667;SDS011;18003;-33.830;151.202;2023-05-10T08:47:05;5.80;;;3.50;;
25667;SDS011;18003;-33.830;151.202;2023-05-10T08:49:37;3.98;;;3.10;;
25667;SDS011;18003;-33.830;151.202;2023-05-10T08:52:07;5.40;;;3.58;;
25667;SDS011;18003;-33.830;151.202;2023-05-10T08:54:38;8.33;;;4.00;;
25667;SDS011;18003;-33.830;151.202;2023-05-10T08:57:09;5.40;;;3.50;;
25667;SDS011;18003;-33.830;151.202;2023-05-10T08:59:39;5.03;;;3.00;;
25667;SDS011;18003;-33.830;151.202;2023-05-10T09:02:10;6.30;;;3.10;;
25667;SDS011;18003;-33.830;151.202;2023-05-10T09:04:41;10.45;;;4.30;;
25667;SDS011;18003;-33.830;151.202;2023-05-10T09:07:11;11.68;;;7.28;;
25667;SDS011;18003;-33.830;151.202;2023-05-10T09:09:42;8.73;;;5.83;;
25667;SDS011;18003;-33.830;151.202;2023-05-10T09:12:13;7.25;;;5.00;;
25667;SDS011;18003;-33.830;151.202;2023-05-10T09:14:43;6.37;;;4.60;;
25667;SDS011;18003;-33.830;151.202;2023-05-10T09:17:14;8.17;;;5.10;;
25667;SDS011;18003;-33.830;151.202;2023-05-10T09:19:44;10.88;;;5.37;;
25667;SDS011;18003;-33.830;151.202;2023-05-10T09:22:14;10.90;;;5.50;;
25667;SDS011;18003;-33.830;151.202;2023-05-10T09:24:44;8.00;;;5.28;;
25667;SDS011;18003;-33.830;151.202;2023-05-10T09:27:15;8.80;;;5.75;;
25667;SDS011;18003;-33.830;151.202;2023-05-10T09:29:47;8.93;;;5.58;;
25667;SDS011;18003;-33.830;151.202;2023-05-10T09:32:18;11.40;;;7.53;;
25667;SDS011;18003;-33.830;151.202;2023-05-10T09:34:49;16.15;;;10.15;;
25667;SDS011;18003;-33.830;151.202;2023-05-10T09:37:19;15.35;;;10.93;;
25667;SDS011;18003;-33.830;151.202;2023-05-10T09:42:20;17.80;;;10.55;;
25667;SDS011;18003;-33.830;151.202;2023-05-10T09:44:50;15.83;;;11.03;;
25667;SDS011;18003;-33.830;151.202;2023-05-10T09:47:20;17.45;;;10.40;;
25667;SDS011;18003;-33.830;151.202;2023-05-10T09:49:51;14.58;;;9.40;;
25667;SDS011;18003;-33.830;151.202;2023-05-10T09:52:25;15.95;;;9.43;;
25667;SDS011;18003;-33.830;151.202;2023-05-10T09:54:55;12.80;;;8.28;;
25667;SDS011;18003;-33.830;151.202;2023-05-10T09:57:25;13.35;;;8.28;;
25667;SDS011;18003;-33.830;151.202;2023-05-10T09:59:55;13.03;;;8.08;;
25667;SDS011;18003;-33.830;151.202;2023-05-10T10:02:28;13.83;;;7.50;;
25667;SDS011;18003;-33.830;151.202;2023-05-10T10:05:00;13.38;;;6.75;;
25667;SDS011;18003;-33.830;151.202;2023-05-10T10:07:30;13.38;;;7.47;;
25667;SDS011;18003;-33.830;151.202;2023-05-10T10:10:01;13.78;;;7.87;;
25667;SDS011;18003;-33.830;151.202;2023-05-10T10:12:31;15.32;;;8.80;;
25667;SDS011;18003;-33.830;151.202;2023-05-10T10:15:02;16.23;;;10.08;;
25667;SDS011;18003;-33.830;151.202;2023-05-10T10:17:33;15.70;;;10.08;;
25667;SDS011;18003;-33.830;151.202;2023-05-10T10:20:05;16.77;;;10.58;;
25667;SDS011;18003;-33.830;151.202;2023-05-10T10:25:05;14.43;;;9.20;;
25667;SDS011;18003;-33.830;151.202;2023-05-10T10:27:47;17.90;;;10.75;;
25667;SDS011;18003;-33.830;151.202;2023-05-10T10:35:35;18.35;;;10.43;;
25667;SDS011;18003;-33.830;151.202;2023-05-10T10:38:05;15.45;;;11.45;;
25667;SDS011;18003;-33.830;151.202;2023-05-10T10:40:36;15.67;;;10.10;;
25667;SDS011;18003;-33.830;151.202;2023-05-10T10:43:29;13.60;;;9.60;;
25667;SDS011;18003;-33.830;151.202;2023-05-10T10:48:47;15.55;;;8.68;;
25667;SDS011;18003;-33.830;151.202;2023-05-10T10:51:26;12.50;;;7.97;;
25667;SDS011;18003;-33.830;151.202;2023-05-10T10:53:55;15.45;;;7.25;;
25667;SDS011;18003;-33.830;151.202;2023-05-10T10:58:58;10.90;;;6.40;;
25667;SDS011;18003;-33.830;151.202;2023-05-10T11:01:32;12.85;;;6.67;;
25667;SDS011;18003;-33.830;151.202;2023-05-10T11:06:37;10.00;;;6.08;;
25667;SDS011;18003;-33.830;151.202;2023-05-10T11:09:10;10.88;;;6.35;;
25667;SDS011;18003;-33.830;151.202;2023-05-10T11:11:53;9.78;;;6.90;;
25667;SDS011;18003;-33.830;151.202;2023-05-10T11:14:24;9.95;;;7.05;;
25667;SDS011;18003;-33.830;151.202;2023-05-10T11:16:54;11.00;;;7.50;;
25667;SDS011;18003;-33.830;151.202;2023-05-10T11:19:24;8.50;;;6.72;;
25667;SDS011;18003;-33.830;151.202;2023-05-10T11:24:36;12.58;;;6.83;;
25667;SDS011;18003;-33.830;151.202;2023-05-10T11:27:07;12.28;;;6.33;;
25667;SDS011;18003;-33.830;151.202;2023-05-10T11:29:37;11.50;;;6.97;;
25667;SDS011;18003;-33.830;151.202;2023-05-10T11:32:07;9.98;;;6.58;;
25667;SDS011;18003;-33.830;151.202;2023-05-10T11:34:37;12.65;;;6.80;;
25667;SDS011;18003;-33.830;151.202;2023-05-10T11:37:08;10.20;;;6.20;;
25667;SDS011;18003;-33.830;151.202;2023-05-10T11:39:38;10.03;;;5.92;;
25667;SDS011;18003;-33.830;151.202;2023-05-10T11:42:09;11.87;;;5.90;;
25667;SDS011;18003;-33.830;151.202;2023-05-10T11:44:40;10.90;;;6.60;;
25667;SDS011;18003;-33.830;151.202;2023-05-10T11:47:11;10.45;;;6.58;;
25667;SDS011;18003;-33.830;151.202;2023-05-10T11:49:47;11.50;;;7.60;;
25667;SDS011;18003;-33.830;151.202;2023-05-10T11:52:12;12.95;;;8.05;;
25667;SDS011;18003;-33.830;151.202;2023-05-10T11:55:00;11.22;;;7.17;;
25667;SDS011;18003;-33.830;151.202;2023-05-10T11:57:25;11.03;;;6.42;;
25667;SDS011;18003;-33.830;151.202;2023-05-10T11:59:56;11.95;;;7.30;;
25667;SDS011;18003;-33.830;151.202;2023-05-10T12:02:26;10.53;;;7.33;;
25667;SDS011;18003;-33.830;151.202;2023-05-10T12:04:56;13.03;;;7.53;;
25667;SDS011;18003;-33.830;151.202;2023-05-10T12:07:27;10.38;;;7.03;;
25667;SDS011;18003;-33.830;151.202;2023-05-10T12:10:06;12.03;;;7.67;;
25667;SDS011;18003;-33.830;151.202;2023-05-10T12:12:41;11.80;;;8.18;;
25667;SDS011;18003;-33.830;151.202;2023-05-10T12:15:22;15.28;;;8.33;;
25667;SDS011;18003;-33.830;151.202;2023-05-10T12:17:46;14.33;;;9.03;;
25667;SDS011;18003;-33.830;151.202;2023-05-10T12:20:22;16.30;;;10.88;;
25667;SDS011;18003;-33.830;151.202;2023-05-10T12:22:52;16.82;;;12.10;;
25667;SDS011;18003;-33.830;151.202;2023-05-10T12:25:23;15.18;;;11.30;;
25667;SDS011;18003;-33.830;151.202;2023-05-10T12:27:55;13.80;;;10.03;;
25667;SDS011;18003;-33.830;151.202;2023-05-10T12:30:30;11.93;;;9.28;;
25667;SDS011;18003;-33.830;151.202;2023-05-10T12:33:01;10.05;;;7.40;;
25667;SDS011;18003;-33.830;151.202;2023-05-10T12:35:32;10.25;;;6.83;;
25667;SDS011;18003;-33.830;151.202;2023-05-10T12:38:22;10.25;;;6.87;;
25667;SDS011;18003;-33.830;151.202;2023-05-10T12:40:35;8.98;;;6.37;;
25667;SDS011;18003;-33.830;151.202;2023-05-10T12:43:05;10.08;;;6.47;;
25667;SDS011;18003;-33.830;151.202;2023-05-10T12:45:35;9.70;;;6.28;;
25667;SDS011;18003;-33.830;151.202;2023-05-10T12:48:05;10.13;;;6.65;;
25667;SDS011;18003;-33.830;151.202;2023-05-10T12:50:35;8.63;;;6.08;;
25667;SDS011;18003;-33.830;151.202;2023-05-10T12:53:05;10.00;;;6.90;;
25667;SDS011;18003;-33.830;151.202;2023-05-10T12:55:35;14.13;;;8.45;;
25667;SDS011;18003;-33.830;151.202;2023-05-10T12:58:05;14.83;;;10.08;;
25667;SDS011;18003;-33.830;151.202;2023-05-10T13:00:35;19.15;;;14.30;;
25667;SDS011;18003;-33.830;151.202;2023-05-10T13:03:05;23.87;;;17.42;;
25667;SDS011;18003;-33.830;151.202;2023-05-10T13:05:35;21.55;;;16.75;;
25667;SDS011;18003;-33.830;151.202;2023-05-10T13:08:06;21.77;;;16.05;;
25667;SDS011;18003;-33.830;151.202;2023-05-10T13:10:36;26.30;;;19.50;;
25667;SDS011;18003;-33.830;151.202;2023-05-10T13:13:05;26.10;;;19.30;;
25667;SDS011;18003;-33.830;151.202;2023-05-10T13:15:36;24.00;;;16.95;;
25667;SDS011;18003;-33.830;151.202;2023-05-10T13:18:06;22.85;;;15.30;;
25667;SDS011;18003;-33.830;151.202;2023-05-10T13:20:36;20.05;;;14.10;;
25667;SDS011;18003;-33.830;151.202;2023-05-10T13:23:06;17.73;;;11.22;;
25667;SDS011;18003;-33.830;151.202;2023-05-10T13:25:36;12.25;;;9.23;;
25667;SDS011;18003;-33.830;151.202;2023-05-10T13:28:06;13.28;;;9.20;;
25667;SDS011;18003;-33.830;151.202;2023-05-10T13:30:36;12.90;;;9.38;;
25667;SDS011;18003;-33.830;151.202;2023-05-10T13:33:06;15.88;;;9.30;;
25667;SDS011;18003;-33.830;151.202;2023-05-10T13:35:36;13.05;;;7.45;;
25667;SDS011;18003;-33.830;151.202;2023-05-10T13:38:06;9.23;;;7.50;;
25667;SDS011;18003;-33.830;151.202;2023-05-10T13:40:36;12.03;;;7.00;;
25667;SDS011;18003;-33.830;151.202;2023-05-10T13:43:06;11.68;;;6.53;;
25667;SDS011;18003;-33.830;151.202;2023-05-10T13:45:36;12.25;;;6.60;;
25667;SDS011;18003;-33.830;151.202;2023-05-10T13:48:06;8.95;;;6.42;;
25667;SDS011;18003;-33.830;151.202;2023-05-10T13:50:36;10.20;;;6.25;;
25667;SDS011;18003;-33.830;151.202;2023-05-10T13:53:06;10.70;;;6.33;;
25667;SDS011;18003;-33.830;151.202;2023-05-10T13:55:36;10.00;;;6.25;;
25667;SDS011;18003;-33.830;151.202;2023-05-10T13:58:06;8.83;;;5.90;;
25667;SDS011;18003;-33.830;151.202;2023-05-10T14:00:37;8.65;;;6.03;;
25667;SDS011;18003;-33.830;151.202;2023-05-10T14:03:07;9.83;;;6.45;;
25667;SDS011;18003;-33.830;151.202;2023-05-10T14:05:37;9.38;;;6.30;;
25667;SDS011;18003;-33.830;151.202;2023-05-10T14:08:07;8.75;;;5.72;;
25667;SDS011;18003;-33.830;151.202;2023-05-10T14:10:38;9.33;;;6.78;;
25667;SDS011;18003;-33.830;151.202;2023-05-10T14:13:08;9.00;;;6.05;;
25667;SDS011;18003;-33.830;151.202;2023-05-10T14:15:39;10.20;;;5.85;;
25667;SDS011;18003;-33.830;151.202;2023-05-10T14:18:09;9.03;;;5.97;;
25667;SDS011;18003;-33.830;151.202;2023-05-10T14:20:40;7.70;;;5.58;;
25667;SDS011;18003;-33.830;151.202;2023-05-10T14:23:10;6.97;;;5.22;;
25667;SDS011;18003;-33.830;151.202;2023-05-10T14:25:40;7.15;;;5.50;;
25667;SDS011;18003;-33.830;151.202;2023-05-10T14:28:10;10.18;;;5.62;;
25667;SDS011;18003;-33.830;151.202;2023-05-10T14:30:40;11.50;;;6.05;;
25667;SDS011;18003;-33.830;151.202;2023-05-10T14:33:11;7.70;;;5.80;;
25667;SDS011;18003;-33.830;151.202;2023-05-10T14:35:41;7.87;;;5.65;;
25667;SDS011;18003;-33.830;151.202;2023-05-10T14:38:11;8.28;;;5.40;;
25667;SDS011;18003;-33.830;151.202;2023-05-10T14:40:42;10.80;;;5.83;;
25667;SDS011;18003;-33.830;151.202;2023-05-10T14:43:12;8.60;;;5.67;;
25667;SDS011;18003;-33.830;151.202;2023-05-10T14:45:42;10.05;;;5.55;;
25667;SDS011;18003;-33.830;151.202;2023-05-10T14:48:13;7.90;;;5.45;;
25667;SDS011;18003;-33.830;151.202;2023-05-10T14:50:43;9.37;;;5.57;;
25667;SDS011;18003;-33.830;151.202;2023-05-10T14:53:14;8.60;;;5.70;;
25667;SDS011;18003;-33.830;151.202;2023-05-10T14:55:44;8.03;;;5.20;;
25667;SDS011;18003;-33.830;151.202;2023-05-10T14:58:14;10.18;;;5.42;;
25667;SDS011;18003;-33.830;151.202;2023-05-10T15:00:44;7.60;;;5.28;;
25667;SDS011;18003;-33.830;151.202;2023-05-10T15:03:14;7.83;;;5.30;;
25667;SDS011;18003;-33.830;151.202;2023-05-10T15:05:44;8.28;;;5.55;;
25667;SDS011;18003;-33.830;151.202;2023-05-10T15:08:15;7.97;;;5.33;;